Terminal Aerodrome Forecast
Issued by NWS

Home | Current Version | Previous Version | Text Only | Print | Product List | Glossary On
Versions: 1 2 3 4 5 6 7 8 9 10 11 12 13 14 15 16 17 18 19 20 21 22 23 24
983
FTUS41 KCAR 141720
TAFFVE
TAF
KFVE 141720Z 1418/1518 26017G27KT P6SM VCSH BKN030
     FM142200 26015KT P6SM BKN070=

USA.gov is the U.S. government's official web portal to all federal, state and local government web resources and services.